sensor_id;sensor_type;location;lat;lon;timestamp;temperature;humidity
1011;DHT22;494;48.744;10.106;2023-02-18T00:01:49;12.70;43.50
1011;DHT22;494;48.744;10.106;2023-02-18T00:04:18;12.80;43.40
1011;DHT22;494;48.744;10.106;2023-02-18T00:06:46;12.70;43.50
1011;DHT22;494;48.744;10.106;2023-02-18T00:09:15;12.50;44.10
1011;DHT22;494;48.744;10.106;2023-02-18T00:11:44;12.40;44.20
1011;DHT22;494;48.744;10.106;2023-02-18T00:14:14;12.60;43.60
1011;DHT22;494;48.744;10.106;2023-02-18T00:16:44;12.50;43.60
1011;DHT22;494;48.744;10.106;2023-02-18T00:19:17;12.70;43.70
1011;DHT22;494;48.744;10.106;2023-02-18T00:21:47;12.80;42.70
1011;DHT22;494;48.744;10.106;2023-02-18T00:24:16;12.80;42.20
1011;DHT22;494;48.744;10.106;2023-02-18T00:26:45;12.90;41.80
1011;DHT22;494;48.744;10.106;2023-02-18T00:29:17;12.90;41.60
1011;DHT22;494;48.744;10.106;2023-02-18T00:31:45;13.00;41.40
1011;DHT22;494;48.744;10.106;2023-02-18T00:34:16;13.00;41.10
1011;DHT22;494;48.744;10.106;2023-02-18T00:36:44;12.90;40.60
1011;DHT22;494;48.744;10.106;2023-02-18T00:39:13;12.90;40.40
1011;DHT22;494;48.744;10.106;2023-02-18T00:41:42;12.70;40.90
1011;DHT22;494;48.744;10.106;2023-02-18T00:44:14;12.70;40.70
1011;DHT22;494;48.744;10.106;2023-02-18T00:46:43;12.80;40.70
1011;DHT22;494;48.744;10.106;2023-02-18T00:49:16;12.90;40.20
1011;DHT22;494;48.744;10.106;2023-02-18T00:51:44;13.00;40.00
1011;DHT22;494;48.744;10.106;2023-02-18T00:54:13;13.00;39.90
1011;DHT22;494;48.744;10.106;2023-02-18T00:56:42;13.00;39.60
1011;DHT22;494;48.744;10.106;2023-02-18T00:59:10;13.00;39.60
1011;DHT22;494;48.744;10.106;2023-02-18T01:01:39;12.90;39.40
1011;DHT22;494;48.744;10.106;2023-02-18T01:04:08;12.80;39.80
1011;DHT22;494;48.744;10.106;2023-02-18T01:06:38;12.70;40.30
1011;DHT22;494;48.744;10.106;2023-02-18T01:09:07;12.80;40.10
1011;DHT22;494;48.744;10.106;2023-02-18T01:11:36;12.70;40.30
1011;DHT22;494;48.744;10.106;2023-02-18T01:14:04;12.60;40.60
1011;DHT22;494;48.744;10.106;2023-02-18T01:16:33;12.70;40.30
1011;DHT22;494;48.744;10.106;2023-02-18T01:19:01;12.70;40.10
1011;DHT22;494;48.744;10.106;2023-02-18T01:21:30;12.50;40.40
1011;DHT22;494;48.744;10.106;2023-02-18T01:24:00;12.70;40.00
1011;DHT22;494;48.744;10.106;2023-02-18T01:26:30;12.60;39.80
1011;DHT22;494;48.744;10.106;2023-02-18T01:28:58;12.60;39.80
1011;DHT22;494;48.744;10.106;2023-02-18T01:31:27;12.70;39.80
1011;DHT22;494;48.744;10.106;2023-02-18T01:33:56;12.80;39.20
1011;DHT22;494;48.744;10.106;2023-02-18T01:36:24;12.80;39.00
1011;DHT22;494;48.744;10.106;2023-02-18T01:38:53;12.80;39.00
1011;DHT22;494;48.744;10.106;2023-02-18T01:41:23;12.90;39.00
1011;DHT22;494;48.744;10.106;2023-02-18T01:44:10;12.90;38.50
1011;DHT22;494;48.744;10.106;2023-02-18T01:46:43;13.00;38.50
1011;DHT22;494;48.744;10.106;2023-02-18T01:49:15;13.00;38.60
1011;DHT22;494;48.744;10.106;2023-02-18T01:51:50;13.00;38.60
1011;DHT22;494;48.744;10.106;2023-02-18T01:54:25;13.00;39.00
1011;DHT22;494;48.744;10.106;2023-02-18T01:57:00;13.00;39.10
1011;DHT22;494;48.744;10.106;2023-02-18T01:59:33;12.90;39.40
1011;DHT22;494;48.744;10.106;2023-02-18T02:02:09;12.90;39.20
1011;DHT22;494;48.744;10.106;2023-02-18T02:04:41;13.00;38.90
1011;DHT22;494;48.744;10.106;2023-02-18T02:07:10;12.90;39.30
1011;DHT22;494;48.744;10.106;2023-02-18T02:09:40;12.90;39.00
1011;DHT22;494;48.744;10.106;2023-02-18T02:12:24;13.00;39.00
1011;DHT22;494;48.744;10.106;2023-02-18T02:15:21;12.90;39.10
1011;DHT22;494;48.744;10.106;2023-02-18T02:18:19;13.00;39.40
1011;DHT22;494;48.744;10.106;2023-02-18T02:21:37;13.00;39.40
1011;DHT22;494;48.744;10.106;2023-02-18T02:24:58;12.70;40.00
1011;DHT22;494;48.744;10.106;2023-02-18T02:28:04;12.50;40.50
1011;DHT22;494;48.744;10.106;2023-02-18T02:30:57;12.40;41.00
1011;DHT22;494;48.744;10.106;2023-02-18T02:34:15;12.60;40.90
1011;DHT22;494;48.744;10.106;2023-02-18T02:37:00;12.50;40.60
1011;DHT22;494;48.744;10.106;2023-02-18T02:39:42;12.40;40.80
1011;DHT22;494;48.744;10.106;2023-02-18T02:42:27;12.30;41.50
1011;DHT22;494;48.744;10.106;2023-02-18T02:45:10;12.30;41.60
1011;DHT22;494;48.744;10.106;2023-02-18T02:47:50;12.50;41.30
1011;DHT22;494;48.744;10.106;2023-02-18T02:50:28;12.40;40.80
1011;DHT22;494;48.744;10.106;2023-02-18T02:53:12;12.30;41.50
1011;DHT22;494;48.744;10.106;2023-02-18T02:55:46;12.40;41.50
1011;DHT22;494;48.744;10.106;2023-02-18T02:58:16;12.40;41.20
1011;DHT22;494;48.744;10.106;2023-02-18T03:00:58;12.40;40.70
1011;DHT22;494;48.744;10.106;2023-02-18T03:04:00;12.40;41.00
1011;DHT22;494;48.744;10.106;2023-02-18T03:07:00;12.40;40.50
1011;DHT22;494;48.744;10.106;2023-02-18T03:09:45;12.60;39.90
1011;DHT22;494;48.744;10.106;2023-02-18T03:12:27;12.60;39.90
1011;DHT22;494;48.744;10.106;2023-02-18T03:15:09;12.40;39.80
1011;DHT22;494;48.744;10.106;2023-02-18T03:17:51;12.40;40.00
1011;DHT22;494;48.744;10.106;2023-02-18T03:20:27;12.30;40.60
1011;DHT22;494;48.744;10.106;2023-02-18T03:23:06;12.30;40.60
1011;DHT22;494;48.744;10.106;2023-02-18T03:25:39;12.30;41.10
1011;DHT22;494;48.744;10.106;2023-02-18T03:28:12;12.40;40.60
1011;DHT22;494;48.744;10.106;2023-02-18T03:30:47;12.50;40.20
1011;DHT22;494;48.744;10.106;2023-02-18T03:33:23;12.50;40.40
1011;DHT22;494;48.744;10.106;2023-02-18T03:35:56;12.40;40.50
1011;DHT22;494;48.744;10.106;2023-02-18T03:38:30;12.50;40.00
1011;DHT22;494;48.744;10.106;2023-02-18T03:41:03;12.60;39.80
1011;DHT22;494;48.744;10.106;2023-02-18T03:43:33;12.70;39.50
1011;DHT22;494;48.744;10.106;2023-02-18T03:46:02;12.70;38.90
1011;DHT22;494;48.744;10.106;2023-02-18T03:48:31;12.60;38.90
1011;DHT22;494;48.744;10.106;2023-02-18T03:51:00;12.50;39.70
1011;DHT22;494;48.744;10.106;2023-02-18T03:53:30;12.40;39.30
1011;DHT22;494;48.744;10.106;2023-02-18T03:55:59;12.40;39.60
1011;DHT22;494;48.744;10.106;2023-02-18T03:58:27;12.40;39.60
1011;DHT22;494;48.744;10.106;2023-02-18T04:00:56;12.60;38.90
1011;DHT22;494;48.744;10.106;2023-02-18T04:03:25;12.50;39.20
1011;DHT22;494;48.744;10.106;2023-02-18T04:05:53;12.40;39.30
1011;DHT22;494;48.744;10.106;2023-02-18T04:08:22;12.40;39.20
1011;DHT22;494;48.744;10.106;2023-02-18T04:10:53;12.50;39.10
1011;DHT22;494;48.744;10.106;2023-02-18T04:13:22;12.60;38.80
1011;DHT22;494;48.744;10.106;2023-02-18T04:15:51;12.50;38.70
1011;DHT22;494;48.744;10.106;2023-02-18T04:18:20;12.60;38.70
1011;DHT22;494;48.744;10.106;2023-02-18T04:20:48;12.60;38.60
1011;DHT22;494;48.744;10.106;2023-02-18T04:23:17;12.60;38.30
1011;DHT22;494;48.744;10.106;2023-02-18T04:25:46;12.60;38.70
1011;DHT22;494;48.744;10.106;2023-02-18T04:28:16;12.70;38.70
1011;DHT22;494;48.744;10.106;2023-02-18T04:30:46;12.80;37.90
1011;DHT22;494;48.744;10.106;2023-02-18T04:33:15;12.70;37.90
1011;DHT22;494;48.744;10.106;2023-02-18T04:35:44;12.70;38.10
1011;DHT22;494;48.744;10.106;2023-02-18T04:38:13;12.90;37.80
1011;DHT22;494;48.744;10.106;2023-02-18T04:40:42;12.80;37.20
1011;DHT22;494;48.744;10.106;2023-02-18T04:43:10;12.70;37.70
1011;DHT22;494;48.744;10.106;2023-02-18T04:45:40;12.70;37.50
1011;DHT22;494;48.744;10.106;2023-02-18T04:48:10;12.60;37.70
1011;DHT22;494;48.744;10.106;2023-02-18T04:50:39;12.50;38.10
1011;DHT22;494;48.744;10.106;2023-02-18T04:53:08;12.60;38.00
1011;DHT22;494;48.744;10.106;2023-02-18T04:55:36;12.60;38.40
1011;DHT22;494;48.744;10.106;2023-02-18T04:58:05;12.80;37.30
1011;DHT22;494;48.744;10.106;2023-02-18T05:00:36;12.80;36.80
1011;DHT22;494;48.744;10.106;2023-02-18T05:03:06;12.70;36.30
1011;DHT22;494;48.744;10.106;2023-02-18T05:05:34;12.70;35.90
1011;DHT22;494;48.744;10.106;2023-02-18T05:08:03;12.60;36.30
1011;DHT22;494;48.744;10.106;2023-02-18T05:10:32;12.60;36.60
1011;DHT22;494;48.744;10.106;2023-02-18T05:13:01;12.60;36.30
1011;DHT22;494;48.744;10.106;2023-02-18T05:15:29;12.60;36.10
1011;DHT22;494;48.744;10.106;2023-02-18T05:17:58;12.50;35.90
1011;DHT22;494;48.744;10.106;2023-02-18T05:20:28;12.50;35.90
1011;DHT22;494;48.744;10.106;2023-02-18T05:22:57;12.50;36.20
1011;DHT22;494;48.744;10.106;2023-02-18T05:25:26;12.60;35.90
1011;DHT22;494;48.744;10.106;2023-02-18T05:27:55;12.60;35.30
1011;DHT22;494;48.744;10.106;2023-02-18T05:30:23;12.50;35.80
1011;DHT22;494;48.744;10.106;2023-02-18T05:32:52;12.50;35.60
1011;DHT22;494;48.744;10.106;2023-02-18T05:35:21;12.40;35.40
1011;DHT22;494;48.744;10.106;2023-02-18T05:37:51;12.30;35.90
1011;DHT22;494;48.744;10.106;2023-02-18T05:40:20;12.10;36.70
1011;DHT22;494;48.744;10.106;2023-02-18T05:42:48;12.30;36.50
1011;DHT22;494;48.744;10.106;2023-02-18T05:45:17;12.40;36.10
1011;DHT22;494;48.744;10.106;2023-02-18T05:47:45;12.50;35.90
1011;DHT22;494;48.744;10.106;2023-02-18T05:50:14;12.50;36.00
1011;DHT22;494;48.744;10.106;2023-02-18T05:52:43;12.60;35.60
1011;DHT22;494;48.744;10.106;2023-02-18T05:55:13;12.60;35.80
1011;DHT22;494;48.744;10.106;2023-02-18T05:57:41;12.70;35.50
1011;DHT22;494;48.744;10.106;2023-02-18T06:00:11;12.70;35.90
1011;DHT22;494;48.744;10.106;2023-02-18T06:02:41;12.50;36.40
1011;DHT22;494;48.744;10.106;2023-02-18T06:05:10;12.40;37.00
1011;DHT22;494;48.744;10.106;2023-02-18T06:07:39;12.50;37.30
1011;DHT22;494;48.744;10.106;2023-02-18T06:10:08;12.40;37.60
1011;DHT22;494;48.744;10.106;2023-02-18T06:12:39;12.40;37.70
1011;DHT22;494;48.744;10.106;2023-02-18T06:15:08;12.40;37.90
1011;DHT22;494;48.744;10.106;2023-02-18T06:17:37;12.40;38.00
1011;DHT22;494;48.744;10.106;2023-02-18T06:20:07;12.40;38.40
1011;DHT22;494;48.744;10.106;2023-02-18T06:22:36;12.50;38.10
1011;DHT22;494;48.744;10.106;2023-02-18T06:25:06;12.40;38.30
1011;DHT22;494;48.744;10.106;2023-02-18T06:27:34;12.50;38.40
1011;DHT22;494;48.744;10.106;2023-02-18T06:30:06;12.50;38.30
1011;DHT22;494;48.744;10.106;2023-02-18T06:32:35;12.50;38.30
1011;DHT22;494;48.744;10.106;2023-02-18T06:35:05;12.60;38.20
1011;DHT22;494;48.744;10.106;2023-02-18T06:37:34;12.50;38.90
1011;DHT22;494;48.744;10.106;2023-02-18T06:40:03;12.30;39.60
1011;DHT22;494;48.744;10.106;2023-02-18T06:42:33;12.40;39.70
1011;DHT22;494;48.744;10.106;2023-02-18T06:45:03;12.50;39.70
1011;DHT22;494;48.744;10.106;2023-02-18T06:47:34;12.60;39.30
1011;DHT22;494;48.744;10.106;2023-02-18T06:50:03;12.80;39.00
1011;DHT22;494;48.744;10.106;2023-02-18T06:52:33;12.90;38.50
1011;DHT22;494;48.744;10.106;2023-02-18T06:55:05;12.80;38.70
1011;DHT22;494;48.744;10.106;2023-02-18T06:57:35;12.90;38.40
1011;DHT22;494;48.744;10.106;2023-02-18T07:00:07;13.00;38.60
1011;DHT22;494;48.744;10.106;2023-02-18T07:02:36;13.00;38.60
1011;DHT22;494;48.744;10.106;2023-02-18T07:05:09;13.00;38.50
1011;DHT22;494;48.744;10.106;2023-02-18T07:07:37;13.00;38.50
1011;DHT22;494;48.744;10.106;2023-02-18T07:10:07;13.00;38.50
1011;DHT22;494;48.744;10.106;2023-02-18T07:12:36;12.80;39.00
1011;DHT22;494;48.744;10.106;2023-02-18T07:15:08;12.70;39.50
1011;DHT22;494;48.744;10.106;2023-02-18T07:17:38;12.60;39.60
1011;DHT22;494;48.744;10.106;2023-02-18T07:20:08;12.80;39.50
1011;DHT22;494;48.744;10.106;2023-02-18T07:22:37;12.80;39.30
1011;DHT22;494;48.744;10.106;2023-02-18T07:25:06;12.80;39.10
1011;DHT22;494;48.744;10.106;2023-02-18T07:27:35;13.00;38.80
1011;DHT22;494;48.744;10.106;2023-02-18T07:30:07;13.10;38.50
1011;DHT22;494;48.744;10.106;2023-02-18T07:32:36;13.10;38.20
1011;DHT22;494;48.744;10.106;2023-02-18T07:35:05;13.10;38.20
1011;DHT22;494;48.744;10.106;2023-02-18T07:37:35;13.00;38.10
1011;DHT22;494;48.744;10.106;2023-02-18T07:40:04;13.00;38.80
1011;DHT22;494;48.744;10.106;2023-02-18T07:42:34;13.30;38.00
1011;DHT22;494;48.744;10.106;2023-02-18T07:45:03;13.30;36.70
1011;DHT22;494;48.744;10.106;2023-02-18T07:47:34;13.60;36.30
1011;DHT22;494;48.744;10.106;2023-02-18T07:50:03;13.70;35.40
1011;DHT22;494;48.744;10.106;2023-02-18T07:52:33;13.80;35.20
1011;DHT22;494;48.744;10.106;2023-02-18T07:55:02;14.00;34.60
1011;DHT22;494;48.744;10.106;2023-02-18T07:57:31;13.70;34.40
1011;DHT22;494;48.744;10.106;2023-02-18T07:59:59;13.70;34.80
1011;DHT22;494;48.744;10.106;2023-02-18T08:02:28;13.70;34.60
1011;DHT22;494;48.744;10.106;2023-02-18T08:04:58;13.50;35.10
1011;DHT22;494;48.744;10.106;2023-02-18T08:07:27;13.60;35.10
1011;DHT22;494;48.744;10.106;2023-02-18T08:09:55;13.70;34.80
1011;DHT22;494;48.744;10.106;2023-02-18T08:12:24;13.90;34.30
1011;DHT22;494;48.744;10.106;2023-02-18T08:14:53;13.70;34.40
1011;DHT22;494;48.744;10.106;2023-02-18T08:17:21;13.60;34.50
1011;DHT22;494;48.744;10.106;2023-02-18T08:19:50;13.80;34.20
1011;DHT22;494;48.744;10.106;2023-02-18T08:22:20;13.70;34.60
1011;DHT22;494;48.744;10.106;2023-02-18T08:24:49;13.80;34.90
1011;DHT22;494;48.744;10.106;2023-02-18T08:27:18;13.90;34.30
1011;DHT22;494;48.744;10.106;2023-02-18T08:29:46;14.10;34.00
1011;DHT22;494;48.744;10.106;2023-02-18T08:32:15;14.20;33.10
1011;DHT22;494;48.744;10.106;2023-02-18T08:34:44;14.00;33.40
1011;DHT22;494;48.744;10.106;2023-02-18T08:37:12;13.90;34.40
1011;DHT22;494;48.744;10.106;2023-02-18T08:39:42;13.90;33.70
1011;DHT22;494;48.744;10.106;2023-02-18T08:42:11;14.00;33.50
1011;DHT22;494;48.744;10.106;2023-02-18T08:44:40;13.90;33.10
1011;DHT22;494;48.744;10.106;2023-02-18T08:47:08;13.90;33.80
1011;DHT22;494;48.744;10.106;2023-02-18T08:49:57;13.90;33.50
1011;DHT22;494;48.744;10.106;2023-02-18T08:52:26;13.90;33.40
1011;DHT22;494;48.744;10.106;2023-02-18T08:54:56;14.00;33.40
1011;DHT22;494;48.744;10.106;2023-02-18T08:57:28;14.20;32.50
1011;DHT22;494;48.744;10.106;2023-02-18T08:59:56;14.30;32.00
1011;DHT22;494;48.744;10.106;2023-02-18T09:02:25;14.10;32.10
1011;DHT22;494;48.744;10.106;2023-02-18T09:04:55;14.20;32.20
1011;DHT22;494;48.744;10.106;2023-02-18T09:07:24;14.30;31.50
1011;DHT22;494;48.744;10.106;2023-02-18T09:09:56;14.20;31.60
1011;DHT22;494;48.744;10.106;2023-02-18T09:12:27;14.00;32.20
1011;DHT22;494;48.744;10.106;2023-02-18T09:14:58;14.30;32.10
1011;DHT22;494;48.744;10.106;2023-02-18T09:17:29;14.40;30.90
1011;DHT22;494;48.744;10.106;2023-02-18T09:19:58;14.00;31.70
1011;DHT22;494;48.744;10.106;2023-02-18T09:22:28;13.90;32.40
1011;DHT22;494;48.744;10.106;2023-02-18T09:25:00;14.10;32.20
1011;DHT22;494;48.744;10.106;2023-02-18T09:27:29;14.30;31.90
1011;DHT22;494;48.744;10.106;2023-02-18T09:29:58;14.30;31.70
1011;DHT22;494;48.744;10.106;2023-02-18T09:32:27;14.50;31.30
1011;DHT22;494;48.744;10.106;2023-02-18T09:35:01;14.30;31.20
1011;DHT22;494;48.744;10.106;2023-02-18T09:37:31;14.30;31.30
1011;DHT22;494;48.744;10.106;2023-02-18T09:40:01;14.40;31.00
1011;DHT22;494;48.744;10.106;2023-02-18T09:42:32;14.70;30.30
1011;DHT22;494;48.744;10.106;2023-02-18T09:45:05;14.40;30.00
1011;DHT22;494;48.744;10.106;2023-02-18T09:47:40;14.10;31.30
1011;DHT22;494;48.744;10.106;2023-02-18T09:50:16;14.00;32.10
1011;DHT22;494;48.744;10.106;2023-02-18T09:52:47;14.20;31.50
1011;DHT22;494;48.744;10.106;2023-02-18T09:55:20;14.30;32.00
1011;DHT22;494;48.744;10.106;2023-02-18T09:57:54;14.40;30.30
1011;DHT22;494;48.744;10.106;2023-02-18T10:00:29;14.60;29.60
1011;DHT22;494;48.744;10.106;2023-02-18T10:03:03;14.70;28.90
1011;DHT22;494;48.744;10.106;2023-02-18T10:05:36;14.30;30.10
1011;DHT22;494;48.744;10.106;2023-02-18T10:08:18;14.20;30.70
1011;DHT22;494;48.744;10.106;2023-02-18T10:10:52;14.20;30.60
1011;DHT22;494;48.744;10.106;2023-02-18T10:13:23;14.40;30.20
1011;DHT22;494;48.744;10.106;2023-02-18T10:15:53;14.50;30.40
1011;DHT22;494;48.744;10.106;2023-02-18T10:18:26;14.70;29.40
1011;DHT22;494;48.744;10.106;2023-02-18T10:21:03;14.80;28.70
1011;DHT22;494;48.744;10.106;2023-02-18T10:23:38;15.10;28.30
1011;DHT22;494;48.744;10.106;2023-02-18T10:26:15;14.70;29.10
1011;DHT22;494;48.744;10.106;2023-02-18T10:28:45;14.60;29.20
1011;DHT22;494;48.744;10.106;2023-02-18T10:31:17;14.50;30.50
1011;DHT22;494;48.744;10.106;2023-02-18T10:33:54;14.60;29.10
1011;DHT22;494;48.744;10.106;2023-02-18T10:36:34;14.80;29.30
1011;DHT22;494;48.744;10.106;2023-02-18T10:39:24;14.30;29.90
1011;DHT22;494;48.744;10.106;2023-02-18T10:42:13;14.30;31.00
1011;DHT22;494;48.744;10.106;2023-02-18T10:45:03;14.40;30.70
1011;DHT22;494;48.744;10.106;2023-02-18T10:47:46;14.40;30.50
1011;DHT22;494;48.744;10.106;2023-02-18T10:50:26;14.00;31.40
1011;DHT22;494;48.744;10.106;2023-02-18T10:53:01;14.10;32.10
1011;DHT22;494;48.744;10.106;2023-02-18T10:55:40;14.30;31.50
1011;DHT22;494;48.744;10.106;2023-02-18T10:58:27;14.30;30.90
1011;DHT22;494;48.744;10.106;2023-02-18T11:01:02;14.50;30.70
1011;DHT22;494;48.744;10.106;2023-02-18T11:03:43;14.40;30.70
1011;DHT22;494;48.744;10.106;2023-02-18T11:06:21;14.40;30.90
1011;DHT22;494;48.744;10.106;2023-02-18T11:08:57;14.20;31.20
1011;DHT22;494;48.744;10.106;2023-02-18T11:11:35;14.50;31.30
1011;DHT22;494;48.744;10.106;2023-02-18T11:14:32;14.70;30.20
1011;DHT22;494;48.744;10.106;2023-02-18T11:17:14;14.80;29.50
1011;DHT22;494;48.744;10.106;2023-02-18T11:19:56;14.70;29.50
1011;DHT22;494;48.744;10.106;2023-02-18T11:22:29;14.70;29.70
1011;DHT22;494;48.744;10.106;2023-02-18T11:25:03;14.40;30.30
1011;DHT22;494;48.744;10.106;2023-02-18T11:27:48;14.30;31.30
1011;DHT22;494;48.744;10.106;2023-02-18T11:30:23;14.60;30.40
1011;DHT22;494;48.744;10.106;2023-02-18T11:33:02;14.60;29.70
1011;DHT22;494;48.744;10.106;2023-02-18T11:35:35;14.80;28.40
1011;DHT22;494;48.744;10.106;2023-02-18T11:38:17;15.10;28.20
1011;DHT22;494;48.744;10.106;2023-02-18T11:40:54;15.10;27.60
1011;DHT22;494;48.744;10.106;2023-02-18T11:43:29;15.20;27.30
1011;DHT22;494;48.744;10.106;2023-02-18T11:46:10;15.40;27.10
1011;DHT22;494;48.744;10.106;2023-02-18T11:48:40;15.60;26.10
1011;DHT22;494;48.744;10.106;2023-02-18T11:51:16;15.30;26.90
1011;DHT22;494;48.744;10.106;2023-02-18T11:53:59;15.30;27.00
1011;DHT22;494;48.744;10.106;2023-02-18T11:56:31;15.40;27.10
1011;DHT22;494;48.744;10.106;2023-02-18T11:59:03;15.60;26.60
1011;DHT22;494;48.744;10.106;2023-02-18T12:01:42;15.60;25.40
1011;DHT22;494;48.744;10.106;2023-02-18T12:04:15;15.40;26.50
1011;DHT22;494;48.744;10.106;2023-02-18T12:06:51;15.50;27.00
1011;DHT22;494;48.744;10.106;2023-02-18T12:09:35;15.20;26.70
1011;DHT22;494;48.744;10.106;2023-02-18T12:12:10;15.10;27.20
1011;DHT22;494;48.744;10.106;2023-02-18T12:14:43;14.80;27.70
1011;DHT22;494;48.744;10.106;2023-02-18T12:17:24;14.70;28.40
1011;DHT22;494;48.744;10.106;2023-02-18T12:20:24;14.80;28.30
1011;DHT22;494;48.744;10.106;2023-02-18T12:23:09;14.70;28.10
1011;DHT22;494;48.744;10.106;2023-02-18T12:25:51;14.80;28.20
1011;DHT22;494;48.744;10.106;2023-02-18T12:28:37;15.00;27.90
1011;DHT22;494;48.744;10.106;2023-02-18T12:31:45;15.10;26.90
1011;DHT22;494;48.744;10.106;2023-02-18T12:34:42;15.00;27.30
1011;DHT22;494;48.744;10.106;2023-02-18T12:37:41;15.10;27.10
1011;DHT22;494;48.744;10.106;2023-02-18T12:40:44;15.20;26.90
1011;DHT22;494;48.744;10.106;2023-02-18T12:43:30;15.20;26.20
1011;DHT22;494;48.744;10.106;2023-02-18T12:46:22;15.30;26.30
1011;DHT22;494;48.744;10.106;2023-02-18T12:49:08;15.20;26.40
1011;DHT22;494;48.744;10.106;2023-02-18T12:52:16;15.20;26.60
1011;DHT22;494;48.744;10.106;2023-02-18T12:55:23;15.00;26.80
1011;DHT22;494;48.744;10.106;2023-02-18T12:58:08;15.00;27.30
1011;DHT22;494;48.744;10.106;2023-02-18T13:01:00;15.00;27.40
1011;DHT22;494;48.744;10.106;2023-02-18T13:04:45;15.00;27.60
1011;DHT22;494;48.744;10.106;2023-02-18T13:07:47;15.10;27.80
1011;DHT22;494;48.744;10.106;2023-02-18T13:10:38;15.00;27.10
1011;DHT22;494;48.744;10.106;2023-02-18T13:13:21;15.30;27.00
1011;DHT22;494;48.744;10.106;2023-02-18T13:15:54;15.20;26.80
1011;DHT22;494;48.744;10.106;2023-02-18T13:18:29;15.30;25.90
1011;DHT22;494;48.744;10.106;2023-02-18T13:21:04;15.20;26.00
1011;DHT22;494;48.744;10.106;2023-02-18T13:24:02;15.30;26.30
1011;DHT22;494;48.744;10.106;2023-02-18T13:26:34;15.50;25.60
1011;DHT22;494;48.744;10.106;2023-02-18T13:29:18;15.70;25.60
1011;DHT22;494;48.744;10.106;2023-02-18T13:31:59;15.90;24.20
1011;DHT22;494;48.744;10.106;2023-02-18T13:34:51;15.80;24.00
1011;DHT22;494;48.744;10.106;2023-02-18T13:37:31;16.00;23.90
1011;DHT22;494;48.744;10.106;2023-02-18T13:40:15;15.80;23.40
1011;DHT22;494;48.744;10.106;2023-02-18T13:42:50;15.60;23.70
1011;DHT22;494;48.744;10.106;2023-02-18T13:45:29;15.40;24.30
1011;DHT22;494;48.744;10.106;2023-02-18T13:47:59;15.20;25.00
1011;DHT22;494;48.744;10.106;2023-02-18T13:50:47;15.10;25.70
1011;DHT22;494;48.744;10.106;2023-02-18T13:53:22;15.10;25.50
1011;DHT22;494;48.744;10.106;2023-02-18T13:55:57;15.20;25.00
1011;DHT22;494;48.744;10.106;2023-02-18T13:58:35;15.20;24.80
1011;DHT22;494;48.744;10.106;2023-02-18T14:01:15;15.10;25.00
1011;DHT22;494;48.744;10.106;2023-02-18T14:03:57;15.20;24.90
1011;DHT22;494;48.744;10.106;2023-02-18T14:06:31;15.40;24.20
1011;DHT22;494;48.744;10.106;2023-02-18T14:12:24;15.70;22.40
1011;DHT22;494;48.744;10.106;2023-02-18T14:18:31;16.40;19.30
1011;DHT22;494;48.744;10.106;2023-02-18T14:21:35;16.80;18.00
1011;DHT22;494;48.744;10.106;2023-02-18T14:24:10;17.10;17.10
1011;DHT22;494;48.744;10.106;2023-02-18T14:26:45;16.90;17.20
1011;DHT22;494;48.744;10.106;2023-02-18T14:29:25;16.30;18.10
1011;DHT22;494;48.744;10.106;2023-02-18T14:32:00;16.20;18.40
1011;DHT22;494;48.744;10.106;2023-02-18T14:34:58;16.00;18.70
1011;DHT22;494;48.744;10.106;2023-02-18T14:41:07;16.00;18.90
1011;DHT22;494;48.744;10.106;2023-02-18T14:44:13;17.00;16.60
1011;DHT22;494;48.744;10.106;2023-02-18T14:47:02;16.80;17.10
1011;DHT22;494;48.744;10.106;2023-02-18T14:49:40;16.20;18.20
1011;DHT22;494;48.744;10.106;2023-02-18T14:52:18;15.70;19.10
1011;DHT22;494;48.744;10.106;2023-02-18T14:54:54;15.30;20.00
1011;DHT22;494;48.744;10.106;2023-02-18T14:57:30;15.20;20.90
1011;DHT22;494;48.744;10.106;2023-02-18T15:00:06;15.00;21.50
1011;DHT22;494;48.744;10.106;2023-02-18T15:02:43;14.90;21.80
1011;DHT22;494;48.744;10.106;2023-02-18T15:05:18;15.00;21.70
1011;DHT22;494;48.744;10.106;2023-02-18T15:07:55;15.10;21.90
1011;DHT22;494;48.744;10.106;2023-02-18T15:10:34;15.20;21.40
1011;DHT22;494;48.744;10.106;2023-02-18T15:13:12;15.10;21.50
1011;DHT22;494;48.744;10.106;2023-02-18T15:15:47;14.80;21.80
1011;DHT22;494;48.744;10.106;2023-02-18T15:18:23;14.70;22.30
1011;DHT22;494;48.744;10.106;2023-02-18T15:20:59;14.80;22.30
1011;DHT22;494;48.744;10.106;2023-02-18T15:23:29;15.10;22.20
1011;DHT22;494;48.744;10.106;2023-02-18T15:25:58;15.20;21.20
1011;DHT22;494;48.744;10.106;2023-02-18T15:28:29;15.10;21.50
1011;DHT22;494;48.744;10.106;2023-02-18T15:31:01;15.00;21.60
1011;DHT22;494;48.744;10.106;2023-02-18T15:33:31;15.20;21.40
1011;DHT22;494;48.744;10.106;2023-02-18T15:36:00;15.10;21.90
1011;DHT22;494;48.744;10.106;2023-02-18T15:38:30;14.90;21.60
1011;DHT22;494;48.744;10.106;2023-02-18T15:40:59;15.10;21.50
1011;DHT22;494;48.744;10.106;2023-02-18T15:43:29;14.90;22.00
1011;DHT22;494;48.744;10.106;2023-02-18T15:46:00;14.90;21.60
1011;DHT22;494;48.744;10.106;2023-02-18T15:48:32;14.80;22.00
1011;DHT22;494;48.744;10.106;2023-02-18T15:51:09;14.70;22.00
1011;DHT22;494;48.744;10.106;2023-02-18T15:53:45;14.60;22.30
1011;DHT22;494;48.744;10.106;2023-02-18T15:56:20;14.60;22.90
1011;DHT22;494;48.744;10.106;2023-02-18T15:59:08;14.60;22.70
1011;DHT22;494;48.744;10.106;2023-02-18T16:01:39;14.60;22.60
1011;DHT22;494;48.744;10.106;2023-02-18T16:04:08;14.50;22.60
1011;DHT22;494;48.744;10.106;2023-02-18T16:06:44;14.60;22.70
1011;DHT22;494;48.744;10.106;2023-02-18T16:09:19;14.70;22.40
1011;DHT22;494;48.744;10.106;2023-02-18T16:11:53;14.50;22.80
1011;DHT22;494;48.744;10.106;2023-02-18T16:14:32;14.50;23.10
1011;DHT22;494;48.744;10.106;2023-02-18T16:17:14;14.50;22.90
1011;DHT22;494;48.744;10.106;2023-02-18T16:19:50;14.40;22.90
1011;DHT22;494;48.744;10.106;2023-02-18T16:22:33;14.20;23.50
1011;DHT22;494;48.744;10.106;2023-02-18T16:25:14;14.10;24.00
1011;DHT22;494;48.744;10.106;2023-02-18T16:27:50;14.10;24.20
1011;DHT22;494;48.744;10.106;2023-02-18T16:30:22;14.10;24.50
1011;DHT22;494;48.744;10.106;2023-02-18T16:32:53;14.10;24.80
1011;DHT22;494;48.744;10.106;2023-02-18T16:35:26;14.10;24.80
1011;DHT22;494;48.744;10.106;2023-02-18T16:38:03;14.10;24.80
1011;DHT22;494;48.744;10.106;2023-02-18T16:40:33;14.00;24.90
1011;DHT22;494;48.744;10.106;2023-02-18T16:43:10;14.10;25.10
1011;DHT22;494;48.744;10.106;2023-02-18T16:45:42;14.10;25.20
1011;DHT22;494;48.744;10.106;2023-02-18T16:48:20;14.10;25.40
1011;DHT22;494;48.744;10.106;2023-02-18T16:50:55;13.90;25.60
1011;DHT22;494;48.744;10.106;2023-02-18T16:53:26;14.00;25.60
1011;DHT22;494;48.744;10.106;2023-02-18T16:55:55;13.90;26.20
1011;DHT22;494;48.744;10.106;2023-02-18T16:58:23;13.80;26.40
1011;DHT22;494;48.744;10.106;2023-02-18T17:00:52;13.80;26.50
1011;DHT22;494;48.744;10.106;2023-02-18T17:03:22;13.80;26.70